sensor_id;sensor_type;location;lat;lon;timestamp;P1;durP1;ratioP1;P2;durP2;ratioP2
56746;SDS011;42623;49.978;9.966;2023-03-23T00:00:05;5.15;;;2.17;;
56746;SDS011;42623;49.978;9.966;2023-03-23T00:00:15;5.75;;;2.70;;
56746;SDS011;42623;49.978;9.966;2023-03-23T00:00:26;6.73;;;2.60;;
56746;SDS011;42623;49.978;9.966;2023-03-23T00:00:36;6.80;;;2.75;;
56746;SDS011;42623;49.978;9.966;2023-03-23T00:00:47;8.40;;;4.13;;
56746;SDS011;42623;49.978;9.966;2023-03-23T00:00:57;7.97;;;4.40;;
56746;SDS011;42623;49.978;9.966;2023-03-23T00:01:08;7.23;;;4.17;;
56746;SDS011;42623;49.978;9.966;2023-03-23T00:01:29;5.13;;;2.83;;
56746;SDS011;42623;49.978;9.966;2023-03-23T00:01:46;6.53;;;3.88;;
56746;SDS011;42623;49.978;9.966;2023-03-23T00:01:59;10.32;;;5.78;;
56746;SDS011;42623;49.978;9.966;2023-03-23T00:02:09;10.00;;;5.23;;
56746;SDS011;42623;49.978;9.966;2023-03-23T00:02:29;10.57;;;5.75;;
56746;SDS011;42623;49.978;9.966;2023-03-23T00:02:42;12.70;;;9.20;;
56746;SDS011;42623;49.978;9.966;2023-03-23T00:02:53;15.15;;;10.48;;
56746;SDS011;42623;49.978;9.966;2023-03-23T00:03:03;14.57;;;9.23;;
56746;SDS011;42623;49.978;9.966;2023-03-23T00:03:13;12.90;;;7.00;;
56746;SDS011;42623;49.978;9.966;2023-03-23T00:03:24;11.93;;;6.23;;
56746;SDS011;42623;49.978;9.966;2023-03-23T00:03:36;14.45;;;7.70;;
56746;SDS011;42623;49.978;9.966;2023-03-23T00:03:48;19.77;;;11.83;;
56746;SDS011;42623;49.978;9.966;2023-03-23T00:03:58;17.88;;;10.85;;
56746;SDS011;42623;49.978;9.966;2023-03-23T00:04:08;17.97;;;10.43;;
56746;SDS011;42623;49.978;9.966;2023-03-23T00:04:19;19.27;;;12.27;;
56746;SDS011;42623;49.978;9.966;2023-03-23T00:04:29;19.50;;;12.70;;
56746;SDS011;42623;49.978;9.966;2023-03-23T00:04:39;15.07;;;9.60;;
56746;SDS011;42623;49.978;9.966;2023-03-23T00:04:49;8.80;;;4.47;;
56746;SDS011;42623;49.978;9.966;2023-03-23T00:05:06;5.68;;;2.08;;
56746;SDS011;42623;49.978;9.966;2023-03-23T00:05:17;4.95;;;1.83;;
56746;SDS011;42623;49.978;9.966;2023-03-23T00:05:27;5.07;;;1.90;;
56746;SDS011;42623;49.978;9.966;2023-03-23T00:05:39;3.72;;;1.60;;
56746;SDS011;42623;49.978;9.966;2023-03-23T00:05:51;3.15;;;1.40;;
56746;SDS011;42623;49.978;9.966;2023-03-23T00:06:01;2.10;;;1.10;;
56746;SDS011;42623;49.978;9.966;2023-03-23T00:06:17;1.95;;;1.10;;
56746;SDS011;42623;49.978;9.966;2023-03-23T00:06:28;72.72;;;48.97;;
56746;SDS011;42623;49.978;9.966;2023-03-23T00:06:42;109.60;;;73.20;;
56746;SDS011;42623;49.978;9.966;2023-03-23T00:06:55;76.28;;;47.97;;
56746;SDS011;42623;49.978;9.966;2023-03-23T00:07:05;42.97;;;25.27;;
56746;SDS011;42623;49.978;9.966;2023-03-23T00:07:15;34.20;;;22.83;;
56746;SDS011;42623;49.978;9.966;2023-03-23T00:07:30;26.08;;;21.35;;
56746;SDS011;42623;49.978;9.966;2023-03-23T00:07:42;17.23;;;12.13;;
56746;SDS011;42623;49.978;9.966;2023-03-23T00:07:54;15.40;;;9.27;;
56746;SDS011;42623;49.978;9.966;2023-03-23T00:08:05;18.77;;;11.60;;
56746;SDS011;42623;49.978;9.966;2023-03-23T00:08:24;30.67;;;18.80;;
56746;SDS011;42623;49.978;9.966;2023-03-23T00:08:37;81.72;;;50.42;;
56746;SDS011;42623;49.978;9.966;2023-03-23T00:08:54;114.30;;;73.10;;
56746;SDS011;42623;49.978;9.966;2023-03-23T00:09:09;101.72;;;65.57;;
56746;SDS011;42623;49.978;9.966;2023-03-23T00:09:19;100.57;;;64.22;;
56746;SDS011;42623;49.978;9.966;2023-03-23T00:09:33;83.95;;;55.80;;
56746;SDS011;42623;49.978;9.966;2023-03-23T00:09:44;62.17;;;40.92;;
56746;SDS011;42623;49.978;9.966;2023-03-23T00:09:54;47.80;;;30.87;;
56746;SDS011;42623;49.978;9.966;2023-03-23T00:10:05;45.78;;;28.17;;
56746;SDS011;42623;49.978;9.966;2023-03-23T00:10:16;34.60;;;22.15;;
56746;SDS011;42623;49.978;9.966;2023-03-23T00:10:26;22.53;;;13.93;;
56746;SDS011;42623;49.978;9.966;2023-03-23T00:10:37;11.88;;;6.35;;
56746;SDS011;42623;49.978;9.966;2023-03-23T00:10:50;9.97;;;4.50;;
56746;SDS011;42623;49.978;9.966;2023-03-23T00:11:06;38.08;;;24.40;;
56746;SDS011;42623;49.978;9.966;2023-03-23T00:11:18;46.97;;;31.33;;
56746;SDS011;42623;49.978;9.966;2023-03-23T00:11:29;47.40;;;30.88;;
56746;SDS011;42623;49.978;9.966;2023-03-23T00:11:40;55.67;;;36.58;;
56746;SDS011;42623;49.978;9.966;2023-03-23T00:11:50;78.30;;;53.53;;
56746;SDS011;42623;49.978;9.966;2023-03-23T00:12:00;98.68;;;66.60;;
56746;SDS011;42623;49.978;9.966;2023-03-23T00:12:15;75.18;;;50.22;;
56746;SDS011;42623;49.978;9.966;2023-03-23T00:12:26;46.77;;;29.83;;
56746;SDS011;42623;49.978;9.966;2023-03-23T00:12:42;24.73;;;14.98;;
56746;SDS011;42623;49.978;9.966;2023-03-23T00:12:54;30.48;;;20.20;;
56746;SDS011;42623;49.978;9.966;2023-03-23T00:13:06;45.80;;;29.52;;
56746;SDS011;42623;49.978;9.966;2023-03-23T00:13:18;56.20;;;37.47;;
56746;SDS011;42623;49.978;9.966;2023-03-23T00:13:29;51.83;;;36.50;;
56746;SDS011;42623;49.978;9.966;2023-03-23T00:13:40;38.03;;;27.20;;
56746;SDS011;42623;49.978;9.966;2023-03-23T00:13:50;23.58;;;15.80;;
56746;SDS011;42623;49.978;9.966;2023-03-23T00:14:01;10.52;;;6.03;;
56746;SDS011;42623;49.978;9.966;2023-03-23T00:14:11;8.63;;;4.17;;
56746;SDS011;42623;49.978;9.966;2023-03-23T00:14:24;9.65;;;4.82;;
56746;SDS011;42623;49.978;9.966;2023-03-23T00:14:34;8.73;;;4.50;;
56746;SDS011;42623;49.978;9.966;2023-03-23T00:14:53;29.17;;;21.23;;
56746;SDS011;42623;49.978;9.966;2023-03-23T00:15:04;37.83;;;27.63;;
56746;SDS011;42623;49.978;9.966;2023-03-23T00:15:15;30.83;;;21.73;;
56746;SDS011;42623;49.978;9.966;2023-03-23T00:15:26;15.52;;;10.30;;
56746;SDS011;42623;49.978;9.966;2023-03-23T00:15:36;23.70;;;16.87;;
56746;SDS011;42623;49.978;9.966;2023-03-23T00:15:51;35.60;;;25.67;;
56746;SDS011;42623;49.978;9.966;2023-03-23T00:16:06;34.15;;;22.63;;
56746;SDS011;42623;49.978;9.966;2023-03-23T00:16:28;14.20;;;8.57;;
56746;SDS011;42623;49.978;9.966;2023-03-23T00:16:40;8.88;;;4.55;;
56746;SDS011;42623;49.978;9.966;2023-03-23T00:16:51;8.05;;;2.70;;
56746;SDS011;42623;49.978;9.966;2023-03-23T00:17:01;15.93;;;9.33;;
56746;SDS011;42623;49.978;9.966;2023-03-23T00:17:12;26.00;;;15.35;;
56746;SDS011;42623;49.978;9.966;2023-03-23T00:17:24;31.30;;;18.50;;
56746;SDS011;42623;49.978;9.966;2023-03-23T00:17:35;20.85;;;10.27;;
56746;SDS011;42623;49.978;9.966;2023-03-23T00:17:45;11.52;;;5.75;;
56746;SDS011;42623;49.978;9.966;2023-03-23T00:17:55;6.53;;;3.17;;
56746;SDS011;42623;49.978;9.966;2023-03-23T00:18:12;9.02;;;4.35;;
56746;SDS011;42623;49.978;9.966;2023-03-23T00:18:30;7.38;;;4.05;;
56746;SDS011;42623;49.978;9.966;2023-03-23T00:18:40;6.03;;;3.23;;
56746;SDS011;42623;49.978;9.966;2023-03-23T00:18:51;7.97;;;4.00;;
56746;SDS011;42623;49.978;9.966;2023-03-23T00:19:04;10.23;;;5.38;;
56746;SDS011;42623;49.978;9.966;2023-03-23T00:19:16;14.93;;;8.57;;
56746;SDS011;42623;49.978;9.966;2023-03-23T00:19:29;13.70;;;8.65;;
56746;SDS011;42623;49.978;9.966;2023-03-23T00:19:39;12.40;;;7.22;;
56746;SDS011;42623;49.978;9.966;2023-03-23T00:19:55;8.93;;;4.60;;
56746;SDS011;42623;49.978;9.966;2023-03-23T00:20:06;16.23;;;11.73;;
56746;SDS011;42623;49.978;9.966;2023-03-23T00:20:16;25.02;;;16.95;;
56746;SDS011;42623;49.978;9.966;2023-03-23T00:20:26;34.57;;;23.53;;
56746;SDS011;42623;49.978;9.966;2023-03-23T00:20:39;29.50;;;19.33;;
56746;SDS011;42623;49.978;9.966;2023-03-23T00:20:50;18.35;;;12.95;;
56746;SDS011;42623;49.978;9.966;2023-03-23T00:21:01;15.82;;;9.60;;
56746;SDS011;42623;49.978;9.966;2023-03-23T00:21:13;16.38;;;8.77;;
56746;SDS011;42623;49.978;9.966;2023-03-23T00:21:31;29.02;;;17.13;;
56746;SDS011;42623;49.978;9.966;2023-03-23T00:21:44;28.80;;;18.73;;
56746;SDS011;42623;49.978;9.966;2023-03-23T00:21:54;15.68;;;10.25;;
56746;SDS011;42623;49.978;9.966;2023-03-23T00:22:04;14.97;;;8.57;;
56746;SDS011;42623;49.978;9.966;2023-03-23T00:22:16;21.90;;;13.10;;
56746;SDS011;42623;49.978;9.966;2023-03-23T00:22:29;30.38;;;18.73;;
56746;SDS011;42623;49.978;9.966;2023-03-23T00:22:39;37.13;;;24.37;;
56746;SDS011;42623;49.978;9.966;2023-03-23T00:22:50;42.80;;;30.08;;
56746;SDS011;42623;49.978;9.966;2023-03-23T00:23:00;48.00;;;32.80;;
56746;SDS011;42623;49.978;9.966;2023-03-23T00:23:11;49.08;;;32.30;;
56746;SDS011;42623;49.978;9.966;2023-03-23T00:23:28;39.08;;;23.88;;
56746;SDS011;42623;49.978;9.966;2023-03-23T00:23:38;25.10;;;15.53;;
56746;SDS011;42623;49.978;9.966;2023-03-23T00:23:49;20.57;;;11.43;;
56746;SDS011;42623;49.978;9.966;2023-03-23T00:24:00;16.07;;;9.50;;
56746;SDS011;42623;49.978;9.966;2023-03-23T00:24:14;10.38;;;5.70;;
56746;SDS011;42623;49.978;9.966;2023-03-23T00:24:25;6.25;;;2.45;;
56746;SDS011;42623;49.978;9.966;2023-03-23T00:24:36;6.53;;;2.17;;
56746;SDS011;42623;49.978;9.966;2023-03-23T00:24:47;5.78;;;2.10;;
56746;SDS011;42623;49.978;9.966;2023-03-23T00:24:58;5.60;;;2.60;;
56746;SDS011;42623;49.978;9.966;2023-03-23T00:25:08;16.47;;;10.27;;
56746;SDS011;42623;49.978;9.966;2023-03-23T00:25:18;27.57;;;17.00;;
56746;SDS011;42623;49.978;9.966;2023-03-23T00:25:28;36.43;;;22.10;;
56746;SDS011;42623;49.978;9.966;2023-03-23T00:25:38;29.83;;;18.30;;
56746;SDS011;42623;49.978;9.966;2023-03-23T00:25:53;22.97;;;13.53;;
56746;SDS011;42623;49.978;9.966;2023-03-23T00:26:06;19.88;;;11.40;;
56746;SDS011;42623;49.978;9.966;2023-03-23T00:26:16;24.57;;;14.70;;
56746;SDS011;42623;49.978;9.966;2023-03-23T00:26:26;25.43;;;14.17;;
56746;SDS011;42623;49.978;9.966;2023-03-23T00:26:39;17.13;;;9.25;;
56746;SDS011;42623;49.978;9.966;2023-03-23T00:26:50;10.82;;;5.55;;
56746;SDS011;42623;49.978;9.966;2023-03-23T00:27:02;21.92;;;14.10;;
56746;SDS011;42623;49.978;9.966;2023-03-23T00:27:13;40.83;;;26.53;;
56746;SDS011;42623;49.978;9.966;2023-03-23T00:27:24;33.17;;;21.50;;
56746;SDS011;42623;49.978;9.966;2023-03-23T00:27:34;20.27;;;11.63;;
56746;SDS011;42623;49.978;9.966;2023-03-23T00:27:44;11.93;;;5.43;;
56746;SDS011;42623;49.978;9.966;2023-03-23T00:27:55;17.98;;;9.23;;
56746;SDS011;42623;49.978;9.966;2023-03-23T00:28:06;18.25;;;9.30;;
56746;SDS011;42623;49.978;9.966;2023-03-23T00:28:16;14.50;;;8.00;;
56746;SDS011;42623;49.978;9.966;2023-03-23T00:28:26;16.23;;;9.10;;
56746;SDS011;42623;49.978;9.966;2023-03-23T00:28:37;21.67;;;12.87;;
56746;SDS011;42623;49.978;9.966;2023-03-23T00:28:48;23.27;;;12.43;;
56746;SDS011;42623;49.978;9.966;2023-03-23T00:29:02;23.08;;;12.35;;
56746;SDS011;42623;49.978;9.966;2023-03-23T00:29:14;27.13;;;14.70;;
56746;SDS011;42623;49.978;9.966;2023-03-23T00:29:25;40.13;;;25.70;;
56746;SDS011;42623;49.978;9.966;2023-03-23T00:29:35;34.40;;;20.58;;
56746;SDS011;42623;49.978;9.966;2023-03-23T00:29:46;18.52;;;10.68;;
56746;SDS011;42623;49.978;9.966;2023-03-23T00:29:57;9.87;;;4.17;;
56746;SDS011;42623;49.978;9.966;2023-03-23T00:30:07;7.93;;;3.65;;
56746;SDS011;42623;49.978;9.966;2023-03-23T00:30:17;15.33;;;9.57;;
56746;SDS011;42623;49.978;9.966;2023-03-23T00:30:27;34.80;;;20.87;;
56746;SDS011;42623;49.978;9.966;2023-03-23T00:30:38;42.10;;;25.87;;
56746;SDS011;42623;49.978;9.966;2023-03-23T00:30:48;40.83;;;23.87;;
56746;SDS011;42623;49.978;9.966;2023-03-23T00:31:00;45.15;;;29.63;;
56746;SDS011;42623;49.978;9.966;2023-03-23T00:31:10;62.95;;;40.65;;
56746;SDS011;42623;49.978;9.966;2023-03-23T00:31:21;63.35;;;41.67;;
56746;SDS011;42623;49.978;9.966;2023-03-23T00:31:31;37.87;;;23.43;;
56746;SDS011;42623;49.978;9.966;2023-03-23T00:31:43;18.08;;;10.55;;
56746;SDS011;42623;49.978;9.966;2023-03-23T00:31:56;16.24;;;9.86;;
56746;SDS011;42623;49.978;9.966;2023-03-23T00:32:07;16.60;;;10.40;;
56746;SDS011;42623;49.978;9.966;2023-03-23T00:32:23;10.60;;;5.65;;
56746;SDS011;42623;49.978;9.966;2023-03-23T00:32:37;7.38;;;2.97;;
56746;SDS011;42623;49.978;9.966;2023-03-23T00:32:47;11.63;;;6.00;;
56746;SDS011;42623;49.978;9.966;2023-03-23T00:32:58;16.02;;;9.23;;
56746;SDS011;42623;49.978;9.966;2023-03-23T00:33:08;20.88;;;11.68;;
56746;SDS011;42623;49.978;9.966;2023-03-23T00:33:18;24.93;;;13.00;;
56746;SDS011;42623;49.978;9.966;2023-03-23T00:33:30;26.40;;;14.87;;
56746;SDS011;42623;49.978;9.966;2023-03-23T00:33:43;20.75;;;12.95;;
56746;SDS011;42623;49.978;9.966;2023-03-23T00:33:53;10.90;;;6.87;;
56746;SDS011;42623;49.978;9.966;2023-03-23T00:34:04;6.87;;;3.70;;
56746;SDS011;42623;49.978;9.966;2023-03-23T00:34:15;4.22;;;1.90;;
56746;SDS011;42623;49.978;9.966;2023-03-23T00:34:29;8.45;;;5.60;;
56746;SDS011;42623;49.978;9.966;2023-03-23T00:34:42;10.32;;;6.60;;
56746;SDS011;42623;49.978;9.966;2023-03-23T00:34:54;8.95;;;4.63;;
56746;SDS011;42623;49.978;9.966;2023-03-23T00:35:04;8.75;;;3.75;;
56746;SDS011;42623;49.978;9.966;2023-03-23T00:35:16;14.60;;;8.07;;
56746;SDS011;42623;49.978;9.966;2023-03-23T00:35:27;14.52;;;8.32;;
56746;SDS011;42623;49.978;9.966;2023-03-23T00:35:37;12.93;;;7.60;;
56746;SDS011;42623;49.978;9.966;2023-03-23T00:35:47;15.93;;;9.75;;
56746;SDS011;42623;49.978;9.966;2023-03-23T00:35:59;23.17;;;14.20;;
56746;SDS011;42623;49.978;9.966;2023-03-23T00:36:10;26.15;;;16.25;;
56746;SDS011;42623;49.978;9.966;2023-03-23T00:36:20;19.60;;;11.75;;
56746;SDS011;42623;49.978;9.966;2023-03-23T00:36:33;20.17;;;13.55;;
56746;SDS011;42623;49.978;9.966;2023-03-23T00:36:48;29.17;;;19.67;;
56746;SDS011;42623;49.978;9.966;2023-03-23T00:36:59;45.20;;;29.60;;
56746;SDS011;42623;49.978;9.966;2023-03-23T00:37:09;40.20;;;26.48;;
56746;SDS011;42623;49.978;9.966;2023-03-23T00:37:19;24.23;;;16.80;;
56746;SDS011;42623;49.978;9.966;2023-03-23T00:37:29;10.77;;;7.03;;
56746;SDS011;42623;49.978;9.966;2023-03-23T00:37:40;10.20;;;6.20;;
56746;SDS011;42623;49.978;9.966;2023-03-23T00:37:50;16.57;;;10.83;;
56746;SDS011;42623;49.978;9.966;2023-03-23T00:38:00;16.53;;;10.77;;
56746;SDS011;42623;49.978;9.966;2023-03-23T00:38:10;13.15;;;7.65;;
56746;SDS011;42623;49.978;9.966;2023-03-23T00:38:23;14.13;;;7.93;;
56746;SDS011;42623;49.978;9.966;2023-03-23T00:38:34;47.88;;;27.30;;
56746;SDS011;42623;49.978;9.966;2023-03-23T00:38:45;68.50;;;39.90;;
56746;SDS011;42623;49.978;9.966;2023-03-23T00:38:57;66.25;;;37.33;;
56746;SDS011;42623;49.978;9.966;2023-03-23T00:39:07;28.02;;;14.68;;
56746;SDS011;42623;49.978;9.966;2023-03-23T00:39:18;18.70;;;9.40;;
56746;SDS011;42623;49.978;9.966;2023-03-23T00:39:28;26.85;;;16.20;;
56746;SDS011;42623;49.978;9.966;2023-03-23T00:39:38;25.97;;;16.03;;
56746;SDS011;42623;49.978;9.966;2023-03-23T00:39:48;18.17;;;10.70;;
56746;SDS011;42623;49.978;9.966;2023-03-23T00:39:58;5.97;;;2.60;;
56746;SDS011;42623;49.978;9.966;2023-03-23T00:40:10;17.25;;;10.05;;
56746;SDS011;42623;49.978;9.966;2023-03-23T00:40:20;26.60;;;14.97;;
56746;SDS011;42623;49.978;9.966;2023-03-23T00:40:31;29.88;;;16.80;;
56746;SDS011;42623;49.978;9.966;2023-03-23T00:40:41;20.93;;;11.23;;
56746;SDS011;42623;49.978;9.966;2023-03-23T00:40:51;23.87;;;14.47;;
56746;SDS011;42623;49.978;9.966;2023-03-23T00:41:01;28.37;;;16.83;;
56746;SDS011;42623;49.978;9.966;2023-03-23T00:41:14;23.25;;;12.90;;
56746;SDS011;42623;49.978;9.966;2023-03-23T00:41:25;35.83;;;20.03;;
56746;SDS011;42623;49.978;9.966;2023-03-23T00:41:39;58.63;;;34.58;;
56746;SDS011;42623;49.978;9.966;2023-03-23T00:41:49;63.00;;;38.23;;
56746;SDS011;42623;49.978;9.966;2023-03-23T00:41:59;26.13;;;15.73;;
56746;SDS011;42623;49.978;9.966;2023-03-23T00:42:13;15.65;;;8.65;;
56746;SDS011;42623;49.978;9.966;2023-03-23T00:42:24;22.13;;;14.32;;
56746;SDS011;42623;49.978;9.966;2023-03-23T00:42:34;38.35;;;24.10;;
56746;SDS011;42623;49.978;9.966;2023-03-23T00:42:47;49.47;;;33.03;;
56746;SDS011;42623;49.978;9.966;2023-03-23T00:42:58;46.58;;;30.83;;
56746;SDS011;42623;49.978;9.966;2023-03-23T00:43:09;38.45;;;23.58;;
56746;SDS011;42623;49.978;9.966;2023-03-23T00:43:24;27.60;;;12.80;;
56746;SDS011;42623;49.978;9.966;2023-03-23T00:43:34;15.70;;;7.32;;
56746;SDS011;42623;49.978;9.966;2023-03-23T00:43:48;7.15;;;3.38;;
56746;SDS011;42623;49.978;9.966;2023-03-23T00:43:59;17.30;;;8.77;;
56746;SDS011;42623;49.978;9.966;2023-03-23T00:44:12;32.28;;;18.75;;
56746;SDS011;42623;49.978;9.966;2023-03-23T00:44:30;51.80;;;32.08;;
56746;SDS011;42623;49.978;9.966;2023-03-23T00:44:41;45.78;;;27.23;;
56746;SDS011;42623;49.978;9.966;2023-03-23T00:44:53;21.92;;;11.07;;
56746;SDS011;42623;49.978;9.966;2023-03-23T00:45:10;14.00;;;7.95;;
56746;SDS011;42623;49.978;9.966;2023-03-23T00:45:20;44.80;;;26.20;;
56746;SDS011;42623;49.978;9.966;2023-03-23T00:45:31;45.25;;;25.55;;
56746;SDS011;42623;49.978;9.966;2023-03-23T00:45:42;36.47;;;20.23;;
56746;SDS011;42623;49.978;9.966;2023-03-23T00:45:52;20.77;;;11.07;;
56746;SDS011;42623;49.978;9.966;2023-03-23T00:46:03;40.93;;;25.00;;
56746;SDS011;42623;49.978;9.966;2023-03-23T00:46:18;57.83;;;36.28;;
56746;SDS011;42623;49.978;9.966;2023-03-23T00:46:30;55.47;;;34.92;;
56746;SDS011;42623;49.978;9.966;2023-03-23T00:46:40;33.47;;;20.10;;
56746;SDS011;42623;49.978;9.966;2023-03-23T00:46:54;43.26;;;27.36;;
56746;SDS011;42623;49.978;9.966;2023-03-23T00:47:06;40.03;;;26.15;;
56746;SDS011;42623;49.978;9.966;2023-03-23T00:47:18;25.23;;;15.77;;
56746;SDS011;42623;49.978;9.966;2023-03-23T00:47:28;15.97;;;8.97;;
56746;SDS011;42623;49.978;9.966;2023-03-23T00:47:40;14.32;;;7.65;;
56746;SDS011;42623;49.978;9.966;2023-03-23T00:47:51;12.40;;;6.60;;
56746;SDS011;42623;49.978;9.966;2023-03-23T00:48:01;8.93;;;4.07;;
56746;SDS011;42623;49.978;9.966;2023-03-23T00:48:12;6.68;;;2.80;;
56746;SDS011;42623;49.978;9.966;2023-03-23T00:48:22;14.63;;;8.47;;
56746;SDS011;42623;49.978;9.966;2023-03-23T00:48:33;29.92;;;18.63;;
56746;SDS011;42623;49.978;9.966;2023-03-23T00:48:45;72.88;;;41.22;;
56746;SDS011;42623;49.978;9.966;2023-03-23T00:48:56;70.77;;;38.77;;
56746;SDS011;42623;49.978;9.966;2023-03-23T00:49:06;49.38;;;26.90;;
56746;SDS011;42623;49.978;9.966;2023-03-23T00:49:20;29.87;;;16.50;;
56746;SDS011;42623;49.978;9.966;2023-03-23T00:49:34;17.77;;;9.52;;
56746;SDS011;42623;49.978;9.966;2023-03-23T00:49:44;15.33;;;7.10;;
56746;SDS011;42623;49.978;9.966;2023-03-23T00:49:54;17.90;;;8.33;;
56746;SDS011;42623;49.978;9.966;2023-03-23T00:50:06;28.33;;;14.93;;
56746;SDS011;42623;49.978;9.966;2023-03-23T00:50:16;45.30;;;29.57;;
56746;SDS011;42623;49.978;9.966;2023-03-23T00:50:27;59.63;;;39.85;;
56746;SDS011;42623;49.978;9.966;2023-03-23T00:50:38;49.87;;;32.63;;
56746;SDS011;42623;49.978;9.966;2023-03-23T00:50:49;39.53;;;24.35;;
56746;SDS011;42623;49.978;9.966;2023-03-23T00:50:59;26.17;;;16.60;;
56746;SDS011;42623;49.978;9.966;2023-03-23T00:51:11;19.25;;;12.75;;
56746;SDS011;42623;49.978;9.966;2023-03-23T00:51:22;8.05;;;4.85;;
56746;SDS011;42623;49.978;9.966;2023-03-23T00:51:32;5.70;;;2.92;;
56746;SDS011;42623;49.978;9.966;2023-03-23T00:51:43;5.53;;;2.63;;
56746;SDS011;42623;49.978;9.966;2023-03-23T00:51:53;20.83;;;12.20;;
56746;SDS011;42623;49.978;9.966;2023-03-23T00:52:04;26.55;;;15.52;;
56746;SDS011;42623;49.978;9.966;2023-03-23T00:52:15;29.02;;;17.35;;
56746;SDS011;42623;49.978;9.966;2023-03-23T00:52:25;20.63;;;12.00;;
56746;SDS011;42623;49.978;9.966;2023-03-23T00:52:36;20.80;;;12.97;;
56746;SDS011;42623;49.978;9.966;2023-03-23T00:52:46;14.30;;;8.82;;
56746;SDS011;42623;49.978;9.966;2023-03-23T00:52:56;10.63;;;6.73;;
56746;SDS011;42623;49.978;9.966;2023-03-23T00:53:06;9.47;;;5.47;;
56746;SDS011;42623;49.978;9.966;2023-03-23T00:53:17;9.30;;;5.43;;
56746;SDS011;42623;49.978;9.966;2023-03-23T00:53:27;11.75;;;6.13;;
56746;SDS011;42623;49.978;9.966;2023-03-23T00:53:38;10.10;;;4.77;;
56746;SDS011;42623;49.978;9.966;2023-03-23T00:53:48;16.92;;;8.27;;
56746;SDS011;42623;49.978;9.966;2023-03-23T00:53:59;16.80;;;9.48;;
56746;SDS011;42623;49.978;9.966;2023-03-23T00:54:09;15.37;;;8.97;;
56746;SDS011;42623;49.978;9.966;2023-03-23T00:54:19;14.40;;;9.73;;
56746;SDS011;42623;49.978;9.966;2023-03-23T00:54:30;21.67;;;15.80;;
56746;SDS011;42623;49.978;9.966;2023-03-23T00:54:40;29.05;;;20.10;;
56746;SDS011;42623;49.978;9.966;2023-03-23T00:54:51;28.73;;;18.77;;
56746;SDS011;42623;49.978;9.966;2023-03-23T00:55:01;25.60;;;15.93;;
56746;SDS011;42623;49.978;9.966;2023-03-23T00:55:11;20.93;;;13.27;;
56746;SDS011;42623;49.978;9.966;2023-03-23T00:55:21;13.27;;;8.07;;
56746;SDS011;42623;49.978;9.966;2023-03-23T00:55:31;9.38;;;5.22;;
56746;SDS011;42623;49.978;9.966;2023-03-23T00:55:44;7.47;;;3.70;;
56746;SDS011;42623;49.978;9.966;2023-03-23T00:55:54;9.38;;;3.58;;
56746;SDS011;42623;49.978;9.966;2023-03-23T00:56:05;9.67;;;3.43;;
56746;SDS011;42623;49.978;9.966;2023-03-23T00:56:15;22.55;;;11.95;;
56746;SDS011;42623;49.978;9.966;2023-03-23T00:56:25;34.17;;;18.53;;
56746;SDS011;42623;49.978;9.966;2023-03-23T00:56:36;34.70;;;18.57;;
56746;SDS011;42623;49.978;9.966;2023-03-23T00:56:47;24.85;;;12.45;;
56746;SDS011;42623;49.978;9.966;2023-03-23T00:56:57;23.87;;;12.50;;
56746;SDS011;42623;49.978;9.966;2023-03-23T00:57:07;35.90;;;22.63;;
56746;SDS011;42623;49.978;9.966;2023-03-23T00:57:17;36.57;;;23.20;;
56746;SDS011;42623;49.978;9.966;2023-03-23T00:57:27;46.43;;;29.03;;
56746;SDS011;42623;49.978;9.966;2023-03-23T00:57:38;41.10;;;24.63;;
56746;SDS011;42623;49.978;9.966;2023-03-23T00:57:48;44.43;;;26.33;;
56746;SDS011;42623;49.978;9.966;2023-03-23T00:58:00;29.80;;;17.35;;
56746;SDS011;42623;49.978;9.966;2023-03-23T00:58:10;24.70;;;13.53;;
56746;SDS011;42623;49.978;9.966;2023-03-23T00:58:21;17.03;;;8.70;;
56746;SDS011;42623;49.978;9.966;2023-03-23T00:58:31;43.92;;;25.45;;
56746;SDS011;42623;49.978;9.966;2023-03-23T00:58:41;67.17;;;40.70;;
56746;SDS011;42623;49.978;9.966;2023-03-23T00:58:51;72.07;;;45.00;;
56746;SDS011;42623;49.978;9.966;2023-03-23T00:59:02;52.53;;;33.03;;
56746;SDS011;42623;49.978;9.966;2023-03-23T00:59:12;34.20;;;21.92;;
56746;SDS011;42623;49.978;9.966;2023-03-23T00:59:23;32.37;;;20.27;;
56746;SDS011;42623;49.978;9.966;2023-03-23T00:59:33;55.65;;;35.28;;
56746;SDS011;42623;49.978;9.966;2023-03-23T00:59:43;60.67;;;37.53;;
56746;SDS011;42623;49.978;9.966;2023-03-23T00:59:53;55.60;;;33.27;;
56746;SDS011;42623;49.978;9.966;2023-03-23T01:00:03;36.10;;;22.73;;
56746;SDS011;42623;49.978;9.966;2023-03-23T01:00:19;77.03;;;48.22;;
56746;SDS011;42623;49.978;9.966;2023-03-23T01:00:29;83.18;;;52.08;;
56746;SDS011;42623;49.978;9.966;2023-03-23T01:00:40;51.17;;;29.97;;
56746;SDS011;42623;49.978;9.966;2023-03-23T01:00:50;17.13;;;9.30;;
56746;SDS011;42623;49.978;9.966;2023-03-23T01:01:00;14.32;;;7.13;;
56746;SDS011;42623;49.978;9.966;2023-03-23T01:01:10;63.93;;;36.43;;
56746;SDS011;42623;49.978;9.966;2023-03-23T01:01:20;83.43;;;48.27;;
56746;SDS011;42623;49.978;9.966;2023-03-23T01:01:31;90.10;;;53.90;;
56746;SDS011;42623;49.978;9.966;2023-03-23T01:01:41;62.07;;;38.63;;
56746;SDS011;42623;49.978;9.966;2023-03-23T01:01:51;45.53;;;28.92;;
56746;SDS011;42623;49.978;9.966;2023-03-23T01:02:02;29.40;;;17.47;;
56746;SDS011;42623;49.978;9.966;2023-03-23T01:02:12;19.08;;;10.18;;
56746;SDS011;42623;49.978;9.966;2023-03-23T01:02:22;53.57;;;33.30;;
56746;SDS011;42623;49.978;9.966;2023-03-23T01:02:35;55.83;;;35.13;;
56746;SDS011;42623;49.978;9.966;2023-03-23T01:02:45;33.20;;;19.98;;
56746;SDS011;42623;49.978;9.966;2023-03-23T01:02:56;11.70;;;5.80;;
56746;SDS011;42623;49.978;9.966;2023-03-23T01:03:06;10.88;;;5.20;;
56746;SDS011;42623;49.978;9.966;2023-03-23T01:03:17;39.07;;;24.23;;
56746;SDS011;42623;49.978;9.966;2023-03-23T01:03:28;68.18;;;42.75;;
56746;SDS011;42623;49.978;9.966;2023-03-23T01:03:39;85.05;;;54.67;;
56746;SDS011;42623;49.978;9.966;2023-03-23T01:03:49;67.30;;;42.33;;
56746;SDS011;42623;49.978;9.966;2023-03-23T01:03:59;60.73;;;36.97;;
56746;SDS011;42623;49.978;9.966;2023-03-23T01:04:14;126.85;;;80.13;;
56746;SDS011;42623;49.978;9.966;2023-03-23T01:04:24;129.87;;;83.57;;
56746;SDS011;42623;49.978;9.966;2023-03-23T01:04:34;110.20;;;71.63;;
56746;SDS011;42623;49.978;9.966;2023-03-23T01:04:47;37.53;;;22.98;;
56746;SDS011;42623;49.978;9.966;2023-03-23T01:05:02;95.95;;;57.08;;
56746;SDS011;42623;49.978;9.966;2023-03-23T01:05:13;124.00;;;74.97;;
56746;SDS011;42623;49.978;9.966;2023-03-23T01:05:24;106.50;;;66.45;;
56746;SDS011;42623;49.978;9.966;2023-03-23T01:05:41;164.48;;;101.07;;
56746;SDS011;42623;49.978;9.966;2023-03-23T01:05:52;190.63;;;116.97;;
56746;SDS011;42623;49.978;9.966;2023-03-23T01:06:09;179.23;;;111.07;;
56746;SDS011;42623;49.978;9.966;2023-03-23T01:06:22;100.75;;;61.78;;
56746;SDS011;42623;49.978;9.966;2023-03-23T01:06:36;41.67;;;23.77;;
56746;SDS011;42623;49.978;9.966;2023-03-23T01:06:49;89.25;;;53.10;;
56746;SDS011;42623;49.978;9.966;2023-03-23T01:07:04;146.77;;;88.55;;
56746;SDS011;42623;49.978;9.966;2023-03-23T01:07:14;126.13;;;76.20;;
56746;SDS011;42623;49.978;9.966;2023-03-23T01:07:27;138.32;;;84.53;;
56746;SDS011;42623;49.978;9.966;2023-03-23T01:07:41;245.02;;;154.80;;
56746;SDS011;42623;49.978;9.966;2023-03-23T01:07:54;258.67;;;158.60;;